Time;durP1;ratioP1;P1;durP2;ratioP2;P2;SDS_P1;SDS_P2;PMS_P1;PMS_P2;Temp;Humidity;BMP_temperature;BMP_pressure;BME280_temperature;BME280_humidity;BME280_pressure;Samples;Min_cycle;Max_cycle;Signal;HPM_P1;HPM_P2
2023/06/26 00:00:32;;;;;;;11.30;9.93;;;21.70;86.00;;;;;;6204380;23;20902;-86
2023/06/26 00:03:01;;;;;;;10.85;8.68;;;21.50;85.10;;;;;;6205402;23;20125;-87
2023/06/26 00:05:30;;;;;;;10.07;9.05;;;21.80;85.70;;;;;;6229164;22;20034;-86
2023/06/26 00:08:06;;;;;;;11.38;9.27;;;21.40;85.40;;;;;;6203198;23;20015;-86
2023/06/26 00:10:32;;;;;;;10.85;9.75;;;21.30;84.70;;;;;;6204415;23;20020;-85
2023/06/26 00:13:07;;;;;;;10.82;9.73;;;20.40;85.50;;;;;;6204770;23;20015;-86
2023/06/26 00:15:32;;;;;;;11.57;10.38;;;21.60;87.20;;;;;;6204820;23;20016;-87
2023/06/26 00:17:59;;;;;;;14.15;9.85;;;21.10;87.10;;;;;;6203310;23;20027;-85
2023/06/26 00:20:35;;;;;;;10.90;9.63;;;21.10;84.20;;;;;;6203977;23;20507;-88
2023/06/26 00:23:09;;;;;;;12.15;10.20;;;21.10;85.90;;;;;;6201421;23;20344;-86
2023/06/26 00:25:37;;;;;;;11.15;9.07;;;21.00;84.60;;;;;;6203238;23;20029;-84
2023/06/26 00:28:11;;;;;;;14.57;9.77;;;21.60;86.10;;;;;;6203883;23;20020;-86
2023/06/26 00:30:37;;;;;;;9.90;8.73;;;20.90;87.40;;;;;;6229870;23;20770;-86
2023/06/26 00:33:15;;;;;;;;;;;;;;;;;;;;;
2023/06/26 00:35:42;;;;;;;13.27;10.50;;;20.60;85.80;;;;;;6227540;23;20087;-87
2023/06/26 00:38:11;;;;;;;12.45;10.02;;;20.70;88.10;;;;;;6203232;23;20053;-86
2023/06/26 00:40:37;;;;;;;11.20;10.00;;;21.80;89.40;;;;;;6201616;23;20112;-86
2023/06/26 00:43:03;;;;;;;11.75;9.90;;;21.00;86.40;;;;;;6203742;23;20816;-86
2023/06/26 00:45:28;;;;;;;11.30;10.20;;;21.00;86.50;;;;;;6204683;23;20019;-85
2023/06/26 00:47:55;;;;;;;11.15;10.02;;;20.20;88.00;;;;;;6205046;23;20059;-86
2023/06/26 00:50:21;;;;;;;12.57;9.45;;;21.00;86.00;;;;;;6206447;23;20074;-89
2023/06/26 00:52:47;;;;;;;13.73;10.05;;;20.90;85.80;;;;;;6205961;23;20016;-90
2023/06/26 00:55:15;;;;;;;10.95;9.73;;;20.90;85.90;;;;;;6231065;23;20027;-87
2023/06/26 00:57:43;;;;;;;14.70;11.05;;;19.20;85.20;;;;;;6203986;23;20019;-87
2023/06/26 01:00:10;;;;;;;13.63;10.23;;;20.90;86.00;;;;;;6204190;23;20099;-85
2023/06/26 01:02:38;;;;;;;11.68;10.45;;;20.90;86.10;;;;;;6203964;23;20066;-87
2023/06/26 01:05:06;;;;;;;11.95;9.93;;;20.90;87.20;;;;;;6205504;23;20016;-86
2023/06/26 01:07:36;;;;;;;11.18;9.60;;;20.90;86.60;;;;;;6205551;23;20020;-86
2023/06/26 01:10:06;;;;;;;12.35;9.88;;;20.80;86.60;;;;;;6228051;23;20016;-86
2023/06/26 01:12:32;;;;;;;12.10;9.68;;;20.80;86.80;;;;;;6203086;23;20023;-89
2023/06/26 01:14:59;;;;;;;13.20;10.10;;;20.80;87.10;;;;;;6203786;23;20012;-86
2023/06/26 01:17:31;;;;;;;12.15;10.43;;;20.80;87.20;;;;;;6205714;23;20533;-86
2023/06/26 01:20:01;;;;;;;12.77;10.90;;;20.70;87.70;;;;;;6205280;23;20550;-86
2023/06/26 01:22:45;;;;;;;12.10;9.52;;;20.70;87.70;;;;;;6205145;23;20023;-86
2023/06/26 01:25:38;;;;;;;12.15;9.77;;;20.60;88.00;;;;;;6228414;23;20097;-85
2023/06/26 01:28:06;;;;;;;11.32;9.88;;;20.60;88.30;;;;;;6204095;23;20043;-85
2023/06/26 01:30:42;;;;;;;10.32;9.07;;;20.50;88.30;;;;;;6204548;23;20020;-86
2023/06/26 01:33:08;;;;;;;11.25;10.02;;;20.60;88.50;;;;;;6202940;22;20181;-85
2023/06/26 01:35:35;;;;;;;11.57;9.90;;;20.50;88.70;;;;;;6203657;23;20086;-86
2023/06/26 01:38:18;;;;;;;10.73;9.63;;;20.50;88.90;;;;;;6203730;23;20128;-87
2023/06/26 01:40:44;;;;;;;14.60;10.25;;;20.50;89.20;;;;;;6201939;23;20421;-85
2023/06/26 01:43:40;;;;;;;11.75;10.05;;;20.50;89.70;;;;;;6201946;23;20016;-85
2023/06/26 01:46:15;;;;;;;11.52;9.60;;;20.40;89.80;;;;;;6201582;23;20016;-85
2023/06/26 01:48:59;;;;;;;11.65;9.93;;;20.40;90.00;;;;;;6202252;23;20529;-85
2023/06/26 01:51:30;;;;;;;11.10;9.68;;;20.40;90.10;;;;;;6200904;23;20077;-84
2023/06/26 01:53:58;;;;;;;11.45;9.32;;;20.40;90.20;;;;;;6201302;23;20382;-86
2023/06/26 01:56:24;;;;;;;11.18;9.73;;;20.30;90.20;;;;;;6201366;23;20023;-85
2023/06/26 01:58:54;;;;;;;10.75;9.65;;;20.30;90.30;;;;;;6202133;23;20012;-85
2023/06/26 02:01:21;;;;;;;11.15;9.93;;;20.30;90.40;;;;;;6202056;23;20047;-84
2023/06/26 02:03:47;;;;;;;11.85;10.23;;;20.30;90.50;;;;;;6202471;23;20090;-85
2023/06/26 02:06:13;;;;;;;10.27;9.27;;;20.30;90.50;;;;;;6201569;23;20043;-84
2023/06/26 02:08:39;;;;;;;10.73;9.27;;;20.30;90.60;;;;;;6201957;23;20709;-86
2023/06/26 02:11:10;;;;;;;10.02;9.02;;;20.30;91.10;;;;;;6200929;23;20075;-85
2023/06/26 02:13:36;;;;;;;11.10;9.77;;;20.20;91.20;;;;;;6201926;23;20049;-83
2023/06/26 02:16:02;;;;;;;13.10;10.10;;;20.20;91.30;;;;;;6200508;23;20020;-86
2023/06/26 02:18:28;;;;;;;11.98;9.75;;;20.20;91.30;;;;;;6202434;23;20016;-84
2023/06/26 02:20:53;;;;;;;10.52;9.32;;;20.20;91.00;;;;;;6227539;23;20012;-86
2023/06/26 02:23:19;;;;;;;12.77;9.90;;;20.20;91.10;;;;;;6228732;23;20020;-84
2023/06/26 02:25:45;;;;;;;11.43;10.23;;;20.20;91.10;;;;;;6228278;23;20020;-84
2023/06/26 02:28:11;;;;;;;11.50;9.60;;;20.20;91.20;;;;;;6204575;23;20020;-85
2023/06/26 02:30:37;;;;;;;10.88;9.07;;;20.10;91.40;;;;;;6201445;23;20023;-84
2023/06/26 02:33:03;;;;;;;9.95;8.75;;;20.10;91.30;;;;;;6201248;22;20535;-85
2023/06/26 02:35:28;;;;;;;14.70;9.63;;;20.10;91.50;;;;;;6200833;23;20055;-85
2023/06/26 02:37:54;;;;;;;12.20;9.68;;;21.60;91.90;;;;;;6200239;23;20117;-84
2023/06/26 02:40:20;;;;;;;10.75;8.95;;;20.00;91.60;;;;;;6200526;23;20604;-85
2023/06/26 02:42:46;;;;;;;10.65;9.63;;;20.00;91.80;;;;;;6200949;23;20016;-84
2023/06/26 02:45:11;;;;;;;9.68;8.68;;;20.00;91.70;;;;;;6200366;23;20125;-84
2023/06/26 02:47:40;;;;;;;10.68;9.20;;;20.00;91.80;;;;;;6201133;23;20030;-86
2023/06/26 02:50:07;;;;;;;10.18;9.07;;;20.00;91.90;;;;;;6201575;23;20350;-84
2023/06/26 02:52:32;;;;;;;10.13;9.00;;;20.00;91.90;;;;;;6201737;23;20078;-84
2023/06/26 02:54:58;;;;;;;10.75;9.52;;;20.00;92.20;;;;;;6227052;23;20020;-84
2023/06/26 02:57:24;;;;;;;12.48;9.30;;;20.00;92.10;;;;;;6226146;23;20022;-84
2023/06/26 02:59:50;;;;;;;11.50;10.35;;;20.80;93.70;;;;;;6200890;23;20478;-84
2023/06/26 03:02:16;;;;;;;11.35;10.15;;;20.00;93.20;;;;;;6226359;23;20030;-84
2023/06/26 03:04:42;;;;;;;10.90;9.73;;;20.00;93.90;;;;;;6200893;23;20101;-84
2023/06/26 03:07:09;;;;;;;12.25;10.15;;;20.00;93.80;;;;;;6225442;23;20020;-84
2023/06/26 03:09:34;;;;;;;11.18;9.65;;;19.80;93.40;;;;;;6200737;23;20023;-83
2023/06/26 03:12:01;;;;;;;10.77;9.20;;;19.80;92.80;;;;;;6200645;23;20016;-84
2023/06/26 03:14:26;;;;;;;12.23;10.77;;;19.50;93.70;;;;;;6200539;23;20057;-84
2023/06/26 03:16:55;;;;;;;11.48;9.77;;;19.80;93.50;;;;;;6201032;23;20012;-84
2023/06/26 03:19:21;;;;;;;11.70;10.50;;;19.80;92.70;;;;;;6201089;23;20342;-83
2023/06/26 03:21:47;;;;;;;11.75;9.48;;;19.80;93.10;;;;;;6226418;23;20538;-86
2023/06/26 03:24:13;;;;;;;11.88;10.40;;;20.30;94.10;;;;;;6227063;23;20074;-84
2023/06/26 03:26:38;;;;;;;12.85;10.98;;;19.90;92.70;;;;;;6201434;23;20016;-84
2023/06/26 03:29:04;;;;;;;13.15;11.07;;;19.80;92.80;;;;;;6201239;23;20012;-84
2023/06/26 03:31:30;;;;;;;13.23;10.95;;;18.20;92.80;;;;;;6201516;23;20573;-85
2023/06/26 03:33:56;;;;;;;12.13;10.82;;;19.80;94.00;;;;;;6204611;22;20028;-86
2023/06/26 03:36:22;;;;;;;14.32;11.07;;;20.30;94.60;;;;;;6201191;23;20109;-85
2023/06/26 03:38:47;;;;;;;12.60;10.68;;;19.70;93.80;;;;;;6202683;23;20448;-83
2023/06/26 03:41:13;;;;;;;12.43;10.98;;;19.70;93.70;;;;;;6229304;23;20019;-84
2023/06/26 03:43:41;;;;;;;12.20;10.73;;;19.40;94.80;;;;;;6202950;23;20012;-84
2023/06/26 03:46:07;;;;;;;12.98;10.93;;;19.80;94.70;;;;;;6202500;23;20130;-84
2023/06/26 03:48:33;;;;;;;12.85;11.52;;;19.60;93.90;;;;;;6202615;23;20527;-84
2023/06/26 03:50:59;;;;;;;12.73;11.48;;;19.50;94.90;;;;;;6202585;23;20463;-83
2023/06/26 03:53:24;;;;;;;17.80;11.55;;;16.90;93.60;;;;;;6202123;23;20441;-84
2023/06/26 03:55:53;;;;;;;12.98;11.55;;;19.60;94.20;;;;;;6227210;23;20020;-84
2023/06/26 03:58:19;;;;;;;11.60;10.45;;;19.60;94.20;;;;;;6202605;23;20616;-85
2023/06/26 04:00:44;;;;;;;12.35;10.70;;;19.70;94.40;;;;;;6202268;23;20020;-85
2023/06/26 04:03:11;;;;;;;11.18;9.90;;;19.80;95.50;;;;;;6202404;23;20016;-85
2023/06/26 04:05:36;;;;;;;10.65;9.45;;;19.90;95.70;;;;;;6202977;23;20020;-84
2023/06/26 04:08:02;;;;;;;11.43;9.13;;;19.80;95.90;;;;;;6202608;23;20023;-84
2023/06/26 04:10:31;;;;;;;10.80;9.32;;;20.60;95.20;;;;;;6202289;23;20123;-84
2023/06/26 04:12:57;;;;;;;10.40;9.32;;;20.50;93.90;;;;;;6201999;23;20419;-84
2023/06/26 04:15:23;;;;;;;10.45;8.40;;;20.90;95.20;;;;;;6201800;23;20566;-84
2023/06/26 04:17:48;;;;;;;10.88;9.63;;;20.90;94.50;;;;;;6202233;23;20040;-84
2023/06/26 04:20:15;;;;;;;12.05;8.68;;;21.30;93.50;;;;;;6202878;23;20023;-85
2023/06/26 04:22:43;;;;;;;9.77;8.05;;;21.80;94.50;;;;;;6228056;23;20749;-85
2023/06/26 04:25:12;;;;;;;10.18;7.80;;;21.60;92.70;;;;;;6203876;23;20383;-84
2023/06/26 04:27:44;;;;;;;9.77;7.28;;;22.30;93.00;;;;;;6203636;23;20432;-84
2023/06/26 04:30:14;;;;;;;9.70;6.97;;;23.40;93.30;;;;;;6202218;23;20046;-85
2023/06/26 04:32:40;;;;;;;8.60;7.57;;;20.60;91.50;;;;;;6201891;22;20039;-85
2023/06/26 04:35:09;;;;;;;9.43;7.55;;;23.00;92.20;;;;;;6203264;23;20016;-85
2023/06/26 04:37:36;;;;;;;10.35;7.38;;;22.80;92.10;;;;;;6202613;23;20016;-84
2023/06/26 04:40:07;;;;;;;8.75;6.40;;;23.30;91.10;;;;;;6202427;23;20012;-85
2023/06/26 04:42:33;;;;;;;9.98;7.05;;;22.80;90.40;;;;;;6202187;23;20020;-85
2023/06/26 04:44:58;;;;;;;7.88;7.07;;;22.80;90.70;;;;;;6201614;23;20077;-84
2023/06/26 04:47:24;;;;;;;11.75;7.05;;;22.70;92.10;;;;;;6202221;23;20024;-84
2023/06/26 04:49:50;;;;;;;7.97;6.78;;;21.40;91.70;;;;;;6202312;23;20024;-85
2023/06/26 04:52:16;;;;;;;8.90;6.60;;;22.70;91.80;;;;;;6201885;23;20050;-86
2023/06/26 04:54:43;;;;;;;7.82;6.97;;;22.90;92.00;;;;;;6201768;23;20344;-85
2023/06/26 04:57:09;;;;;;;8.20;6.45;;;22.80;91.80;;;;;;6202419;23;20090;-86
2023/06/26 04:59:35;;;;;;;8.48;6.35;;;22.50;92.10;;;;;;6203618;23;20020;-88
2023/06/26 05:02:01;;;;;;;8.23;6.47;;;23.40;91.70;;;;;;6202911;23;20709;-85
2023/06/26 05:04:27;;;;;;;11.18;6.78;;;22.80;92.00;;;;;;6204631;23;20016;-84
2023/06/26 05:06:56;;;;;;;8.93;6.50;;;22.30;91.60;;;;;;6203190;23;20622;-85
2023/06/26 05:09:22;;;;;;;10.43;7.00;;;22.70;91.80;;;;;;6229721;23;20015;-85
2023/06/26 05:11:47;;;;;;;9.15;6.82;;;22.90;91.00;;;;;;6203529;23;20469;-85
2023/06/26 05:14:13;;;;;;;12.07;6.53;;;23.50;90.50;;;;;;6206851;23;20039;-87
2023/06/26 05:16:39;;;;;;;9.73;7.18;;;23.50;89.60;;;;;;6207852;23;20023;-86
2023/06/26 05:19:05;;;;;;;9.73;6.68;;;23.60;89.10;;;;;;6208455;23;20008;-86
2023/06/26 05:21:40;;;;;;;11.20;6.80;;;23.80;88.90;;;;;;6208098;23;20094;-88
2023/06/26 05:24:08;;;;;;;9.65;6.57;;;24.70;90.80;;;;;;6208276;23;20020;-89
2023/06/26 05:26:34;;;;;;;9.50;5.75;;;24.60;89.70;;;;;;6209331;23;20463;-85
2023/06/26 05:29:01;;;;;;;10.82;6.10;;;23.90;88.20;;;;;;6209602;23;20027;-92
2023/06/26 05:31:33;;;;;;;9.18;5.80;;;23.90;88.00;;;;;;6234711;23;20069;-92
2023/06/26 05:34:02;;;;;;;10.18;6.05;;;24.70;88.80;;;;;;6240011;22;20038;-90
2023/06/26 05:36:33;;;;;;;10.30;6.15;;;23.80;87.50;;;;;;6210065;23;20119;-90
2023/06/26 05:39:02;;;;;;;9.90;6.20;;;24.00;87.70;;;;;;6235345;23;20566;-86
2023/06/26 05:41:28;;;;;;;9.48;5.60;;;23.80;89.00;;;;;;6208037;23;20012;-88
2023/06/26 05:43:59;;;;;;;11.52;5.97;;;23.80;87.90;;;;;;6210837;23;20148;-95
2023/06/26 05:46:25;;;;;;;9.15;6.15;;;23.90;88.00;;;;;;6235748;23;20052;-87
2023/06/26 05:48:50;;;;;;;12.77;6.45;;;23.90;88.30;;;;;;6210177;23;20016;-86
2023/06/26 05:51:16;;;;;;;11.02;6.30;;;23.80;87.80;;;;;;6210239;23;20733;-89
2023/06/26 05:53:43;;;;;;;11.10;6.10;;;23.80;87.70;;;;;;6211535;23;20020;-88
2023/06/26 05:56:11;;;;;;;10.48;6.88;;;24.10;88.00;;;;;;6210758;23;20023;-88
2023/06/26 05:58:37;;;;;;;12.07;6.40;;;25.00;86.20;;;;;;6211477;23;20485;-91
2023/06/26 06:01:06;;;;;;;10.48;5.85;;;25.40;86.00;;;;;;6207501;23;20026;-87
2023/06/26 06:03:32;;;;;;;13.68;6.10;;;25.60;85.70;;;;;;6206961;23;20012;-92
2023/06/26 06:05:58;;;;;;;12.20;6.75;;;24.90;83.80;;;;;;6232844;23;20087;-86
2023/06/26 06:08:23;;;;;;;11.93;6.95;;;24.50;85.10;;;;;;6207229;23;20819;-90
2023/06/26 06:10:49;;;;;;;14.55;6.68;;;24.30;85.10;;;;;;6207228;23;20020;-86
2023/06/26 06:13:15;;;;;;;9.27;5.88;;;24.00;85.30;;;;;;6206508;23;20024;-89
2023/06/26 06:15:41;;;;;;;10.35;5.72;;;23.80;86.20;;;;;;6208649;23;20445;-88
2023/06/26 06:18:07;;;;;;;12.50;5.82;;;23.50;86.40;;;;;;6208529;23;20819;-89
2023/06/26 06:20:32;;;;;;;13.68;6.35;;;23.40;88.90;;;;;;6210305;23;20019;-90
2023/06/26 06:23:01;;;;;;;8.43;5.50;;;23.20;87.40;;;;;;6209447;23;20024;-90
2023/06/26 06:25:27;;;;;;;11.25;5.88;;;23.20;87.80;;;;;;6206891;23;20048;-89
2023/06/26 06:27:53;;;;;;;11.40;6.25;;;23.10;87.90;;;;;;6206483;23;20020;-90
2023/06/26 06:30:19;;;;;;;14.10;5.22;;;23.00;88.70;;;;;;6207661;23;20016;-88
2023/06/26 06:32:50;;;;;;;11.38;5.70;;;22.80;88.50;;;;;;6208733;23;20024;-87
2023/06/26 06:35:17;;;;;;;10.35;5.15;;;22.70;88.90;;;;;;6207206;23;20020;-85
2023/06/26 06:37:43;;;;;;;10.60;4.70;;;23.20;89.30;;;;;;6207874;23;20016;-90
2023/06/26 06:40:10;;;;;;;7.60;3.55;;;24.00;87.70;;;;;;6206907;23;20031;-89
2023/06/26 06:42:36;;;;;;;7.55;3.17;;;25.60;85.00;;;;;;6233853;23;20367;-86
2023/06/26 06:45:06;;;;;;;9.43;3.00;;;27.00;82.50;;;;;;6234654;23;20763;-91
2023/06/26 06:47:32;;;;;;;6.85;2.28;;;26.10;77.70;;;;;;6208335;23;20020;-87
2023/06/26 06:50:03;;;;;;;6.63;2.65;;;28.30;76.20;;;;;;6208273;23;20028;-92
2023/06/26 06:52:29;;;;;;;5.17;2.00;;;25.80;73.80;;;;;;6207742;23;20023;-88
2023/06/26 06:55:05;;;;;;;6.65;1.85;;;28.20;77.50;;;;;;6208970;23;20326;-85
2023/06/26 06:57:37;;;;;;;8.13;1.60;;;26.60;74.80;;;;;;6211045;23;20410;-89
2023/06/26 07:00:08;;;;;;;8.45;1.98;;;27.30;73.20;;;;;;6210090;23;20020;-93
2023/06/26 07:02:36;;;;;;;6.25;1.80;;;26.60;72.70;;;;;;6208717;23;20020;-90
2023/06/26 07:05:06;;;;;;;5.18;1.95;;;29.10;69.80;;;;;;6210468;23;20043;-91
2023/06/26 07:07:40;;;;;;;8.00;2.35;;;30.80;69.40;;;;;;6208111;23;20102;-89
2023/06/26 07:10:09;;;;;;;8.55;2.00;;;31.70;64.70;;;;;;6209200;23;20538;-88
2023/06/26 07:12:35;;;;;;;6.63;2.28;;;32.70;63.10;;;;;;6209399;23;20012;-88
2023/06/26 07:15:02;;;;;;;5.03;1.40;;;32.90;61.70;;;;;;6211053;23;20012;-89
2023/06/26 07:17:28;;;;;;;8.02;1.58;;;32.70;59.90;;;;;;6212441;23;20015;-90
2023/06/26 07:20:10;;;;;;;6.53;1.10;;;29.80;57.50;;;;;;6210934;23;20474;-87
2023/06/26 07:22:38;;;;;;;;;;;33.30;58.10;;;;;;6211599;23;20012;-87
2023/06/26 07:25:04;;;;;;;6.55;1.50;;;34.00;58.50;;;;;;6209048;23;19915;-88
2023/06/26 07:27:33;;;;;;;6.03;1.52;;;32.30;56.00;;;;;;6210447;23;20515;-87
2023/06/26 07:29:59;;;;;;;5.57;1.30;;;34.60;56.00;;;;;;6210788;23;20103;-88
2023/06/26 07:32:24;;;;;;;3.30;1.15;;;35.50;54.60;;;;;;6213676;22;20051;-92
2023/06/26 07:34:51;;;;;;;2.90;0.68;;;36.10;52.10;;;;;;6245108;22;20023;-88
2023/06/26 07:37:16;;;;;;;2.50;0.65;;;36.80;50.30;;;;;;6243116;22;20022;-90
2023/06/26 07:39:42;;;;;;;3.78;0.80;;;37.10;49.00;;;;;;6244988;22;20015;-92
2023/06/26 07:42:14;;;;;;;6.05;1.00;;;37.40;48.80;;;;;;6273491;22;20017;-91
2023/06/26 07:44:39;;;;;;;3.80;0.95;;;38.00;48.80;;;;;;6244102;22;20017;-93
2023/06/26 07:47:07;;;;;;;4.55;0.60;;;38.30;47.20;;;;;;6271693;22;20035;-89
2023/06/26 07:49:33;;;;;;;3.65;0.73;;;40.80;51.00;;;;;;6243965;22;20090;-89
2023/06/26 07:52:14;;;;;;;2.85;0.80;;;39.10;45.60;;;;;;6244765;22;20046;-91
2023/06/26 07:54:43;;;;;;;4.63;0.88;;;39.40;46.30;;;;;;6246014;22;20029;-92
2023/06/26 07:57:18;;;;;;;4.90;0.85;;;39.80;47.50;;;;;;6242724;22;20011;-86
2023/06/26 07:59:44;;;;;;;6.55;1.27;;;39.70;45.80;;;;;;6238611;22;20018;-86
2023/06/26 08:02:35;;;;;;;3.33;0.93;;;40.10;44.40;;;;;;6265096;22;20026;-89
2023/06/26 08:27:15;;;;;;;6.13;1.00;;;35.10;42.70;;;;;;6300913;22;20014;-85
2023/06/26 08:38:13;;;;;;;3.20;0.80;;;34.70;45.10;;;;;;6264658;22;20023;-88
2023/06/26 08:51:59;;;;;;;3.83;0.50;;;34.80;45.90;;;;;;6228514;23;20030;-85
2023/06/26 09:02:06;;;;;;;6.80;0.82;;;32.10;49.40;;;;;;6225391;23;20047;-89
2023/06/26 09:09:21;;;;;;;4.35;0.70;;;31.90;49.30;;;;;;6194334;22;20042;-88
2023/06/26 09:12:03;;;;;;;3.35;0.90;;;31.00;51.30;;;;;;6107428;23;20017;-88
2023/06/26 09:14:56;;;;;;;1.50;0.50;;;31.30;52.70;;;;;;6112114;23;20020;-88
2023/06/26 09:21:18;;;;;;;4.13;0.65;;;30.40;51.20;;;;;;6222904;23;20051;-88
2023/06/26 09:23:49;;;;;;;;;;;29.20;54.00;;;;;;6194029;23;20642;-88
2023/06/26 09:30:04;;;;;;;4.57;0.80;;;29.50;53.70;;;;;;6220489;23;20302;-86
2023/06/26 09:32:30;;;;;;;3.05;0.65;;;29.90;55.00;;;;;;6193299;23;20114;-86
2023/06/26 09:35:05;;;;;;;4.05;0.63;;;30.00;54.40;;;;;;6192948;23;20016;-86
2023/06/26 09:37:41;;;;;;;3.50;0.77;;;29.30;56.20;;;;;;6199229;23;20016;-89
2023/06/26 09:40:26;;;;;;;5.80;1.75;;;28.70;56.60;;;;;;6225244;22;20020;-87
2023/06/26 09:42:55;;;;;;;2.97;0.57;;;28.20;57.30;;;;;;6221462;23;20836;-87
2023/06/26 09:45:42;;;;;;;3.75;0.82;;;28.00;57.30;;;;;;6193119;23;20018;-86
2023/06/26 09:48:19;;;;;;;10.30;1.20;;;29.10;56.20;;;;;;6198256;23;20043;-88
2023/06/26 09:58:51;;;;;;;6.25;0.88;;;26.40;52.60;;;;;;6228054;23;20466;-86
2023/06/26 10:02:04;;;;;;;3.47;1.05;;;25.60;54.00;;;;;;6194981;23;20051;-89
2023/06/26 10:05:12;;;;;;;3.90;0.80;;;27.60;56.60;;;;;;6201857;23;20107;-87
2023/06/26 10:08:10;;;;;;;;;;;;;;;;;;;;;
2023/06/26 10:18:26;;;;;;;4.20;1.10;;;24.10;54.30;;;;;;6236603;23;20031;-86
2023/06/26 10:21:14;;;;;;;5.07;1.25;;;26.60;58.40;;;;;;6228330;23;20757;-85
2023/06/26 10:24:22;;;;;;;3.53;0.63;;;24.90;57.90;;;;;;6231203;22;20020;-87
2023/06/26 10:26:57;;;;;;;3.42;1.05;;;25.80;57.00;;;;;;6196306;23;20034;-88
2023/06/26 10:29:25;;;;;;;5.32;0.63;;;26.70;58.80;;;;;;6210446;23;20487;-85
2023/06/26 10:35:28;;;;;;;5.00;1.00;;;26.50;57.70;;;;;;6230212;22;20085;-87
2023/06/26 10:38:47;;;;;;;5.15;1.00;;;26.40;60.00;;;;;;6212806;23;20016;-90
2023/06/26 10:42:10;;;;;;;;;;;;;;;;;;;;;
2023/06/26 10:49:50;;;;;;;6.88;1.83;;;25.20;57.20;;;;;;6275662;22;20050;-87
2023/06/26 10:53:23;;;;;;;;;;;;;;;;;;;;;
2023/06/26 10:56:51;;;;;;;2.17;0.83;;;26.80;58.00;;;;;;6190370;23;20467;-89
2023/06/26 11:00:18;;;;;;;5.35;0.80;;;23.40;57.90;;;;;;6045702;23;20125;-88
2023/06/26 11:04:05;;;;;;;3.38;0.90;;;26.20;60.80;;;;;;6001654;23;20030;-88
2023/06/26 11:13:57;;;;;;;3.33;0.90;;;23.50;57.80;;;;;;5894173;24;20029;-89
2023/06/26 11:16:26;;;;;;;7.65;0.85;;;24.80;60.40;;;;;;5901817;24;20586;-88
2023/06/26 11:18:58;;;;;;;5.30;0.68;;;24.80;61.60;;;;;;5924226;24;20062;-87
2023/06/26 11:21:37;;;;;;;8.70;0.88;;;24.70;63.50;;;;;;5927293;24;20017;-87
2023/06/26 11:31:58;;;;;;;4.65;0.68;;;24.10;60.10;;;;;;6017736;23;20061;-89
2023/06/26 11:34:42;;;;;;;6.45;1.20;;;27.20;62.20;;;;;;6061796;23;20018;-87
2023/06/26 11:37:16;;;;;;;3.13;1.00;;;25.30;61.00;;;;;;6068366;23;20045;-89
2023/06/26 11:43:56;;;;;;;2.72;0.80;;;22.90;58.20;;;;;;6014324;23;20031;-91
2023/06/26 11:46:34;;;;;;;;;;;23.50;58.70;;;;;;6005424;23;20042;-86
2023/06/26 11:49:59;;;;;;;5.55;0.73;;;24.90;60.30;;;;;;6007060;23;19914;-89
2023/06/26 11:53:11;;;;;;;;;;;;;;;;;;;;;
2023/06/26 11:56:09;;;;;;;;;;;25.90;60.00;;;;;;5921679;24;20021;-86
2023/06/26 11:59:16;;;;;;;4.30;0.52;;;25.80;59.50;;;;;;5951414;23;19933;-87
2023/06/26 12:01:47;;;;;;;4.03;0.70;;;25.00;59.30;;;;;;6019986;23;20024;-86
2023/06/26 12:04:16;;;;;;;6.57;0.80;;;25.40;59.90;;;;;;6028965;23;20026;-85
2023/06/26 12:06:52;;;;;;;4.72;0.50;;;25.30;58.40;;;;;;6110224;23;20040;-86
2023/06/26 12:09:21;;;;;;;2.95;0.60;;;22.80;56.40;;;;;;6154914;23;20079;-86
2023/06/26 12:11:51;;;;;;;3.22;0.40;;;25.60;57.70;;;;;;6128776;23;20021;-86
2023/06/26 12:14:19;;;;;;;3.72;0.40;;;24.00;56.20;;;;;;6128482;23;20065;-88
2023/06/26 12:16:45;;;;;;;6.28;0.52;;;26.00;57.00;;;;;;6179123;23;20012;-88
2023/06/26 12:19:11;;;;;;;2.40;0.60;;;26.00;58.40;;;;;;6152727;23;20020;-89
2023/06/26 12:21:37;;;;;;;5.38;0.73;;;26.00;57.80;;;;;;6151976;23;20017;-89
2023/06/26 12:24:04;;;;;;;5.60;0.47;;;26.00;57.00;;;;;;6198908;23;20020;-91
2023/06/26 12:26:33;;;;;;;1.83;0.32;;;25.90;56.70;;;;;;6216613;23;20099;-89
2023/06/26 12:29:07;;;;;;;4.05;0.50;;;25.90;57.10;;;;;;6216159;23;20055;-87
2023/06/26 12:31:33;;;;;;;2.53;0.38;;;26.00;58.80;;;;;;6214918;23;20035;-87
2023/06/26 12:34:00;;;;;;;3.08;0.45;;;26.10;56.80;;;;;;6214510;23;20027;-92
2023/06/26 12:36:26;;;;;;;2.67;0.30;;;26.20;56.70;;;;;;6215763;23;20016;-91
2023/06/26 12:38:55;;;;;;;4.55;0.60;;;26.20;57.40;;;;;;6215044;23;20016;-87
2023/06/26 12:41:31;;;;;;;3.85;0.40;;;26.70;60.50;;;;;;6216833;22;20024;-90
2023/06/26 12:43:58;;;;;;;4.88;0.50;;;26.20;59.90;;;;;;6216227;23;20024;-88
2023/06/26 12:46:37;;;;;;;3.83;0.50;;;26.20;58.80;;;;;;6215754;23;20016;-88
2023/06/26 12:49:03;;;;;;;5.32;0.55;;;26.20;59.10;;;;;;6240523;23;20051;-86
2023/06/26 12:51:29;;;;;;;4.28;0.43;;;26.80;62.00;;;;;;6216429;23;20016;-87
2023/06/26 12:53:55;;;;;;;2.88;0.40;;;26.10;58.60;;;;;;6215547;23;20012;-87
2023/06/26 12:56:23;;;;;;;4.35;0.50;;;26.70;59.10;;;;;;6215519;23;20016;-87
2023/06/26 12:58:49;;;;;;;2.88;0.40;;;25.80;58.30;;;;;;6214965;23;20022;-91
2023/06/26 13:01:15;;;;;;;3.80;0.88;;;25.40;60.10;;;;;;6217756;23;20649;-88
2023/06/26 13:03:41;;;;;;;3.53;0.50;;;25.60;60.90;;;;;;6217282;23;20020;-87
2023/06/26 13:06:07;;;;;;;4.43;0.50;;;25.60;58.20;;;;;;6241484;23;20011;-88
2023/06/26 13:08:36;;;;;;;6.55;0.65;;;25.50;60.50;;;;;;6216792;23;20016;-87
2023/06/26 13:11:02;;;;;;;3.95;0.40;;;25.70;58.10;;;;;;6216691;23;20098;-87
2023/06/26 13:13:28;;;;;;;4.88;0.52;;;25.40;57.80;;;;;;6208102;23;20012;-88
2023/06/26 13:15:54;;;;;;;4.90;0.73;;;24.00;60.90;;;;;;6210916;23;20072;-91
2023/06/26 13:18:20;;;;;;;5.82;0.50;;;25.20;60.30;;;;;;6211724;23;20470;-89
2023/06/26 13:20:48;;;;;;;3.60;0.40;;;25.20;57.80;;;;;;6213899;23;20026;-88
2023/06/26 13:23:15;;;;;;;5.05;0.60;;;25.40;58.50;;;;;;6238455;23;20012;-85
2023/06/26 13:25:41;;;;;;;6.20;0.70;;;25.60;58.20;;;;;;6210201;23;20027;-88
2023/06/26 13:28:06;;;;;;;4.63;0.60;;;25.70;58.20;;;;;;6210918;23;20012;-88
2023/06/26 13:30:32;;;;;;;4.72;0.50;;;25.70;57.90;;;;;;6210950;23;20020;-87
2023/06/26 13:33:00;;;;;;;4.90;0.43;;;25.80;57.70;;;;;;6210599;23;20016;-85
2023/06/26 13:35:26;;;;;;;3.70;0.65;;;25.80;57.70;;;;;;6211449;23;20097;-87
2023/06/26 13:37:52;;;;;;;4.47;0.65;;;25.80;57.50;;;;;;6210735;23;20019;-88
2023/06/26 13:40:18;;;;;;;3.50;0.43;;;25.70;57.50;;;;;;6211420;23;20020;-90
2023/06/26 13:42:43;;;;;;;6.82;0.70;;;25.60;57.40;;;;;;6208309;23;20528;-88
2023/06/26 13:45:10;;;;;;;3.20;0.60;;;25.50;57.80;;;;;;6236084;23;20016;-86
2023/06/26 13:47:37;;;;;;;4.25;0.43;;;24.10;57.90;;;;;;6209963;23;20027;-87
2023/06/26 13:50:06;;;;;;;7.35;0.70;;;25.40;58.80;;;;;;6209296;23;20048;-90
2023/06/26 13:52:32;;;;;;;3.85;0.55;;;22.50;57.00;;;;;;6207531;23;20087;-89
2023/06/26 13:54:58;;;;;;;3.08;0.60;;;25.90;62.00;;;;;;6236269;23;20048;-87
2023/06/26 13:57:23;;;;;;;3.97;0.30;;;25.80;62.50;;;;;;6211499;23;20107;-88
2023/06/26 13:59:50;;;;;;;4.35;0.52;;;25.60;61.50;;;;;;6234490;23;20669;-88
2023/06/26 14:02:16;;;;;;;3.03;0.40;;;25.40;59.10;;;;;;6208474;23;20018;-85
2023/06/26 14:04:41;;;;;;;7.53;0.60;;;25.40;58.30;;;;;;6208444;23;20091;-89
2023/06/26 14:07:09;;;;;;;2.75;0.60;;;25.40;58.50;;;;;;6208569;23;20023;-89
2023/06/26 14:09:34;;;;;;;5.05;0.50;;;25.40;58.10;;;;;;6206059;23;20090;-86
2023/06/26 14:12:00;;;;;;;2.88;0.73;;;25.40;58.40;;;;;;6205807;23;20096;-85
2023/06/26 14:14:26;;;;;;;5.88;0.75;;;25.40;57.80;;;;;;6231837;23;20016;-89
2023/06/26 14:16:52;;;;;;;4.85;0.60;;;25.40;57.80;;;;;;6205876;23;20012;-88
2023/06/26 14:19:18;;;;;;;7.28;0.90;;;25.20;58.80;;;;;;6207150;23;20841;-91
2023/06/26 14:21:46;;;;;;;6.22;0.68;;;25.20;58.60;;;;;;6233318;22;20024;-88
2023/06/26 14:24:15;;;;;;;4.50;0.40;;;23.40;59.40;;;;;;6210925;23;20090;-87
2023/06/26 14:26:41;;;;;;;5.28;0.47;;;25.00;60.60;;;;;;6211354;23;20024;-87
2023/06/26 14:29:07;;;;;;;4.22;0.60;;;24.90;63.10;;;;;;6208591;23;20073;-88
2023/06/26 14:31:32;;;;;;;4.30;0.43;;;24.80;61.50;;;;;;6210118;23;20062;-86
2023/06/26 14:33:59;;;;;;;3.30;0.38;;;24.70;59.40;;;;;;6207922;23;20145;-87
2023/06/26 14:36:26;;;;;;;3.22;0.50;;;26.90;60.90;;;;;;6206547;23;20067;-89
2023/06/26 14:38:52;;;;;;;4.88;0.43;;;24.50;59.50;;;;;;6232130;23;20059;-88
2023/06/26 14:41:20;;;;;;;3.97;0.88;;;24.60;60.20;;;;;;6207101;23;20032;-89
2023/06/26 14:43:46;;;;;;;1.55;0.30;;;24.70;60.10;;;;;;6230491;23;20031;-86
2023/06/26 14:46:12;;;;;;;2.53;0.50;;;24.70;59.60;;;;;;6206320;23;20016;-89
2023/06/26 14:48:38;;;;;;;4.32;0.50;;;24.70;59.30;;;;;;6207209;23;20054;-90
2023/06/26 14:51:03;;;;;;;2.50;0.30;;;24.70;59.00;;;;;;6232016;23;20024;-93